메인 페이지
METAR-TAF:

METAR-TAF

공항 :

푸앵트누아르, 콩고

위도: 04-49S, 경도: 011-54E, 고도: 17m

현재 날씨관측

예보는 1 시간 37분 전, 21:00시(UTC)에 발표되었습니다.
4kt
온도 25°C
습도 89%
기압 1013 hPa
시정: 9000m
고도 1000ft 상공 구름 조금
고도 2800ft 상공 구름 많음

METAR: FCPP 282100Z 17004KT 9000 FEW010 BKN028 25/23 Q1013 NOSIG

시각: 23:37 (22:37 UTC)

예보

예보는 5 시간 37분 전, 17:00시(UTC)에 발표되었습니다.
예보 대상 시간: 28일 18시부터 29일 18시까지 (UTC)
남서6kt
시정: 9000m
고도 1000ft 상공 구름 조금
고도 2000ft 상공 구름 많음
확률 30%
29일 05시부터 29일 07시까지 (UTC)
시정: 4000m
박무

TAF: FCPP 281700Z 2818/2918 22006KT 9000 FEW010 BKN020 PROB30 2905/2907 4000 BR

4,000개 이상의 공항 관측 자료 및 예보 (METAR 및 TAF 보고).

지도상에서 검색 가능한 기상관측소가 노란 점과 빨간 점으로 표시되어 있습니다.

기상관측소 명을 보려면 표시 위로 마우스를 이동하세요.

날씨 관측과 예보를 보려면 클릭하세요.

지도 변경 : 확대하려면 엑스 표시가 있는 녹색 버튼, 축소하려면 빼기 표시가 있는 녹색 버튼, 다음 페이지의 지도를 보려면 녹색 화살표를 클릭하세요.


METAR-TAF: